sensor_id;sensor_type;location;lat;lon;timestamp;P1;durP1;ratioP1;P2;durP2;ratioP2
14203;SDS011;7185;51.854;6.622;2023-12-07T00:05:40;32.10;;;18.77;;
14203;SDS011;7185;51.854;6.622;2023-12-07T00:08:26;32.58;;;18.33;;
14203;SDS011;7185;51.854;6.622;2023-12-07T00:11:01;31.30;;;17.75;;
14203;SDS011;7185;51.854;6.622;2023-12-07T00:13:44;35.08;;;18.38;;
14203;SDS011;7185;51.854;6.622;2023-12-07T00:16:16;33.05;;;17.92;;
14203;SDS011;7185;51.854;6.622;2023-12-07T00:19:02;30.70;;;16.25;;
14203;SDS011;7185;51.854;6.622;2023-12-07T00:21:44;30.25;;;16.00;;
14203;SDS011;7185;51.854;6.622;2023-12-07T00:24:21;26.30;;;15.27;;
14203;SDS011;7185;51.854;6.622;2023-12-07T00:27:03;29.52;;;16.50;;
14203;SDS011;7185;51.854;6.622;2023-12-07T00:29:38;30.65;;;17.30;;
14203;SDS011;7185;51.854;6.622;2023-12-07T00:32:16;26.65;;;16.13;;
14203;SDS011;7185;51.854;6.622;2023-12-07T00:35:07;31.35;;;17.23;;
14203;SDS011;7185;51.854;6.622;2023-12-07T00:40:57;25.33;;;14.88;;
14203;SDS011;7185;51.854;6.622;2023-12-07T00:43:32;30.55;;;15.48;;
14203;SDS011;7185;51.854;6.622;2023-12-07T00:46:17;28.88;;;15.93;;
14203;SDS011;7185;51.854;6.622;2023-12-07T00:48:50;29.17;;;15.55;;
14203;SDS011;7185;51.854;6.622;2023-12-07T00:52:10;27.38;;;15.50;;
14203;SDS011;7185;51.854;6.622;2023-12-07T00:54:52;30.45;;;16.52;;
14203;SDS011;7185;51.854;6.622;2023-12-07T00:57:27;31.05;;;17.63;;
14203;SDS011;7185;51.854;6.622;2023-12-07T01:00:02;31.30;;;17.33;;
14203;SDS011;7185;51.854;6.622;2023-12-07T01:02:44;30.87;;;17.33;;
14203;SDS011;7185;51.854;6.622;2023-12-07T01:05:23;30.23;;;16.63;;
14203;SDS011;7185;51.854;6.622;2023-12-07T01:08:07;34.50;;;18.08;;
14203;SDS011;7185;51.854;6.622;2023-12-07T01:10:47;32.67;;;17.33;;
14203;SDS011;7185;51.854;6.622;2023-12-07T01:13:24;29.60;;;17.25;;
14203;SDS011;7185;51.854;6.622;2023-12-07T01:16:07;31.50;;;17.50;;
14203;SDS011;7185;51.854;6.622;2023-12-07T01:18:47;39.58;;;17.90;;
14203;SDS011;7185;51.854;6.622;2023-12-07T01:21:26;32.60;;;17.92;;
14203;SDS011;7185;51.854;6.622;2023-12-07T01:24:01;32.67;;;18.85;;
14203;SDS011;7185;51.854;6.622;2023-12-07T01:26:48;36.00;;;18.85;;
14203;SDS011;7185;51.854;6.622;2023-12-07T01:29:32;33.03;;;17.88;;
14203;SDS011;7185;51.854;6.622;2023-12-07T01:32:17;32.72;;;16.58;;
14203;SDS011;7185;51.854;6.622;2023-12-07T01:34:56;34.60;;;18.85;;
14203;SDS011;7185;51.854;6.622;2023-12-07T01:37:39;31.67;;;17.40;;
14203;SDS011;7185;51.854;6.622;2023-12-07T01:40:14;32.38;;;18.50;;
14203;SDS011;7185;51.854;6.622;2023-12-07T01:42:54;32.03;;;17.65;;
14203;SDS011;7185;51.854;6.622;2023-12-07T01:45:47;33.03;;;18.08;;
14203;SDS011;7185;51.854;6.622;2023-12-07T01:48:28;33.53;;;17.95;;
14203;SDS011;7185;51.854;6.622;2023-12-07T01:51:06;29.90;;;16.98;;
14203;SDS011;7185;51.854;6.622;2023-12-07T01:53:47;31.90;;;18.38;;
14203;SDS011;7185;51.854;6.622;2023-12-07T01:56:26;37.28;;;19.90;;
14203;SDS011;7185;51.854;6.622;2023-12-07T01:59:04;36.03;;;19.58;;
14203;SDS011;7185;51.854;6.622;2023-12-07T02:01:46;36.40;;;19.45;;
14203;SDS011;7185;51.854;6.622;2023-12-07T02:04:28;35.35;;;18.80;;
14203;SDS011;7185;51.854;6.622;2023-12-07T02:07:07;37.33;;;19.90;;
14203;SDS011;7185;51.854;6.622;2023-12-07T02:09:45;40.50;;;19.30;;
14203;SDS011;7185;51.854;6.622;2023-12-07T02:12:31;44.00;;;18.98;;
14203;SDS011;7185;51.854;6.622;2023-12-07T02:15:14;39.95;;;20.15;;
14203;SDS011;7185;51.854;6.622;2023-12-07T02:18:10;33.67;;;19.70;;
14203;SDS011;7185;51.854;6.622;2023-12-07T02:20:57;41.72;;;20.63;;
14203;SDS011;7185;51.854;6.622;2023-12-07T02:23:49;38.40;;;19.45;;
14203;SDS011;7185;51.854;6.622;2023-12-07T02:26:39;37.22;;;19.45;;
14203;SDS011;7185;51.854;6.622;2023-12-07T02:29:17;33.97;;;18.25;;
14203;SDS011;7185;51.854;6.622;2023-12-07T02:31:55;38.43;;;19.87;;
14203;SDS011;7185;51.854;6.622;2023-12-07T02:34:35;38.92;;;20.27;;
14203;SDS011;7185;51.854;6.622;2023-12-07T02:37:10;40.05;;;20.60;;
14203;SDS011;7185;51.854;6.622;2023-12-07T02:39:47;40.58;;;21.27;;
14203;SDS011;7185;51.854;6.622;2023-12-07T02:42:25;39.75;;;20.00;;
14203;SDS011;7185;51.854;6.622;2023-12-07T02:45:04;36.97;;;19.85;;
14203;SDS011;7185;51.854;6.622;2023-12-07T02:47:45;37.95;;;19.27;;
14203;SDS011;7185;51.854;6.622;2023-12-07T02:50:34;36.65;;;20.45;;
14203;SDS011;7185;51.854;6.622;2023-12-07T02:53:09;38.42;;;20.20;;
14203;SDS011;7185;51.854;6.622;2023-12-07T02:55:46;37.63;;;20.65;;
14203;SDS011;7185;51.854;6.622;2023-12-07T02:58:27;40.25;;;21.45;;
14203;SDS011;7185;51.854;6.622;2023-12-07T03:01:14;35.50;;;19.20;;
14203;SDS011;7185;51.854;6.622;2023-12-07T03:03:53;43.22;;;20.85;;
14203;SDS011;7185;51.854;6.622;2023-12-07T03:06:32;42.83;;;22.65;;
14203;SDS011;7185;51.854;6.622;2023-12-07T03:09:07;39.47;;;20.92;;
14203;SDS011;7185;51.854;6.622;2023-12-07T03:12:00;47.78;;;22.42;;
14203;SDS011;7185;51.854;6.622;2023-12-07T03:14:40;45.90;;;22.50;;
14203;SDS011;7185;51.854;6.622;2023-12-07T03:17:15;42.85;;;22.30;;
14203;SDS011;7185;51.854;6.622;2023-12-07T03:20:11;44.25;;;23.73;;
14203;SDS011;7185;51.854;6.622;2023-12-07T03:22:54;38.45;;;21.50;;
14203;SDS011;7185;51.854;6.622;2023-12-07T03:25:36;39.50;;;21.15;;
14203;SDS011;7185;51.854;6.622;2023-12-07T03:28:08;133.73;;;26.83;;
14203;SDS011;7185;51.854;6.622;2023-12-07T03:30:51;82.35;;;24.10;;
14203;SDS011;7185;51.854;6.622;2023-12-07T03:33:29;141.05;;;26.85;;
14203;SDS011;7185;51.854;6.622;2023-12-07T03:36:10;100.72;;;24.30;;
14203;SDS011;7185;51.854;6.622;2023-12-07T03:38:45;137.25;;;26.85;;
14203;SDS011;7185;51.854;6.622;2023-12-07T03:41:22;69.50;;;22.02;;
14203;SDS011;7185;51.854;6.622;2023-12-07T03:43:59;35.88;;;21.08;;
14203;SDS011;7185;51.854;6.622;2023-12-07T03:46:40;219.68;;;30.25;;
14203;SDS011;7185;51.854;6.622;2023-12-07T03:49:17;152.15;;;27.40;;
14203;SDS011;7185;51.854;6.622;2023-12-07T03:52:03;126.25;;;25.45;;
14203;SDS011;7185;51.854;6.622;2023-12-07T03:54:45;169.20;;;24.75;;
14203;SDS011;7185;51.854;6.622;2023-12-07T03:57:39;145.88;;;24.23;;
14203;SDS011;7185;51.854;6.622;2023-12-07T04:00:26;47.58;;;19.50;;
14203;SDS011;7185;51.854;6.622;2023-12-07T04:03:03;151.25;;;25.35;;
14203;SDS011;7185;51.854;6.622;2023-12-07T04:08:16;88.57;;;22.02;;
14203;SDS011;7185;51.854;6.622;2023-12-07T04:10:47;99.93;;;23.23;;
14203;SDS011;7185;51.854;6.622;2023-12-07T04:13:22;90.70;;;24.55;;
14203;SDS011;7185;51.854;6.622;2023-12-07T04:16:01;97.38;;;23.23;;
14203;SDS011;7185;51.854;6.622;2023-12-07T04:18:41;86.72;;;22.70;;
14203;SDS011;7185;51.854;6.622;2023-12-07T04:21:25;77.07;;;21.55;;
14203;SDS011;7185;51.854;6.622;2023-12-07T04:23:59;108.88;;;24.15;;
14203;SDS011;7185;51.854;6.622;2023-12-07T04:26:34;43.28;;;21.48;;
14203;SDS011;7185;51.854;6.622;2023-12-07T04:29:12;73.35;;;23.17;;
14203;SDS011;7185;51.854;6.622;2023-12-07T04:31:53;71.22;;;23.15;;
14203;SDS011;7185;51.854;6.622;2023-12-07T04:34:33;78.10;;;23.45;;
14203;SDS011;7185;51.854;6.622;2023-12-07T04:37:14;47.85;;;22.30;;
14203;SDS011;7185;51.854;6.622;2023-12-07T04:42:39;57.97;;;23.92;;
14203;SDS011;7185;51.854;6.622;2023-12-07T04:45:14;51.72;;;23.52;;
14203;SDS011;7185;51.854;6.622;2023-12-07T04:47:52;56.33;;;24.23;;
14203;SDS011;7185;51.854;6.622;2023-12-07T04:50:32;69.82;;;25.38;;
14203;SDS011;7185;51.854;6.622;2023-12-07T04:53:25;73.32;;;26.92;;
14203;SDS011;7185;51.854;6.622;2023-12-07T04:56:07;46.67;;;25.23;;
14203;SDS011;7185;51.854;6.622;2023-12-07T04:58:52;94.15;;;30.25;;
14203;SDS011;7185;51.854;6.622;2023-12-07T05:01:26;76.05;;;28.25;;
14203;SDS011;7185;51.854;6.622;2023-12-07T05:04:07;52.05;;;27.33;;
14203;SDS011;7185;51.854;6.622;2023-12-07T05:06:51;70.57;;;27.48;;
14203;SDS011;7185;51.854;6.622;2023-12-07T05:09:36;57.28;;;26.27;;
14203;SDS011;7185;51.854;6.622;2023-12-07T05:12:14;74.22;;;28.40;;
14203;SDS011;7185;51.854;6.622;2023-12-07T05:14:52;70.13;;;26.60;;
14203;SDS011;7185;51.854;6.622;2023-12-07T05:17:31;104.07;;;30.73;;
14203;SDS011;7185;51.854;6.622;2023-12-07T05:20:07;83.13;;;31.00;;
14203;SDS011;7185;51.854;6.622;2023-12-07T05:22:47;107.40;;;30.52;;
14203;SDS011;7185;51.854;6.622;2023-12-07T05:25:31;86.18;;;30.55;;
14203;SDS011;7185;51.854;6.622;2023-12-07T05:28:03;67.80;;;28.90;;
14203;SDS011;7185;51.854;6.622;2023-12-07T05:30:35;72.65;;;30.77;;
14203;SDS011;7185;51.854;6.622;2023-12-07T05:33:11;64.55;;;29.33;;
14203;SDS011;7185;51.854;6.622;2023-12-07T05:35:43;56.20;;;28.85;;
14203;SDS011;7185;51.854;6.622;2023-12-07T05:38:17;60.78;;;30.42;;
14203;SDS011;7185;51.854;6.622;2023-12-07T05:41:01;104.20;;;32.90;;
14203;SDS011;7185;51.854;6.622;2023-12-07T05:43:33;67.28;;;30.80;;
14203;SDS011;7185;51.854;6.622;2023-12-07T05:46:05;74.68;;;32.15;;
14203;SDS011;7185;51.854;6.622;2023-12-07T05:48:37;76.90;;;32.03;;
14203;SDS011;7185;51.854;6.622;2023-12-07T05:51:11;96.28;;;35.47;;
14203;SDS011;7185;51.854;6.622;2023-12-07T05:53:45;109.45;;;34.97;;
14203;SDS011;7185;51.854;6.622;2023-12-07T05:56:18;109.05;;;36.55;;
14203;SDS011;7185;51.854;6.622;2023-12-07T05:59:00;91.38;;;34.03;;
14203;SDS011;7185;51.854;6.622;2023-12-07T06:01:31;106.05;;;36.53;;
14203;SDS011;7185;51.854;6.622;2023-12-07T06:04:09;103.95;;;36.20;;
14203;SDS011;7185;51.854;6.622;2023-12-07T06:06:42;143.50;;;37.38;;
14203;SDS011;7185;51.854;6.622;2023-12-07T06:09:15;149.23;;;37.20;;
14203;SDS011;7185;51.854;6.622;2023-12-07T06:11:53;131.77;;;37.53;;
14203;SDS011;7185;51.854;6.622;2023-12-07T06:14:25;130.50;;;37.47;;
14203;SDS011;7185;51.854;6.622;2023-12-07T06:16:57;128.73;;;36.90;;
14203;SDS011;7185;51.854;6.622;2023-12-07T06:19:31;117.40;;;35.47;;
14203;SDS011;7185;51.854;6.622;2023-12-07T06:22:12;145.57;;;38.55;;
14203;SDS011;7185;51.854;6.622;2023-12-07T06:24:48;127.45;;;37.42;;
14203;SDS011;7185;51.854;6.622;2023-12-07T06:27:20;153.50;;;36.35;;
14203;SDS011;7185;51.854;6.622;2023-12-07T06:29:55;167.18;;;40.10;;
14203;SDS011;7185;51.854;6.622;2023-12-07T06:32:27;158.15;;;39.28;;
14203;SDS011;7185;51.854;6.622;2023-12-07T06:34:59;119.53;;;39.13;;
14203;SDS011;7185;51.854;6.622;2023-12-07T06:37:40;114.57;;;36.03;;
14203;SDS011;7185;51.854;6.622;2023-12-07T06:40:21;106.80;;;37.10;;
14203;SDS011;7185;51.854;6.622;2023-12-07T06:43:17;129.93;;;37.03;;
14203;SDS011;7185;51.854;6.622;2023-12-07T06:45:56;147.13;;;40.58;;
14203;SDS011;7185;51.854;6.622;2023-12-07T06:48:41;154.02;;;38.58;;
14203;SDS011;7185;51.854;6.622;2023-12-07T06:51:16;146.85;;;39.58;;
14203;SDS011;7185;51.854;6.622;2023-12-07T06:53:48;210.43;;;43.03;;
14203;SDS011;7185;51.854;6.622;2023-12-07T06:56:24;143.82;;;41.92;;
14203;SDS011;7185;51.854;6.622;2023-12-07T06:59:00;194.10;;;40.17;;
14203;SDS011;7185;51.854;6.622;2023-12-07T07:01:35;171.70;;;37.78;;
14203;SDS011;7185;51.854;6.622;2023-12-07T07:04:12;163.52;;;36.83;;
14203;SDS011;7185;51.854;6.622;2023-12-07T07:06:43;158.50;;;35.45;;
14203;SDS011;7185;51.854;6.622;2023-12-07T07:09:18;192.85;;;39.13;;
14203;SDS011;7185;51.854;6.622;2023-12-07T07:11:57;177.02;;;38.83;;
14203;SDS011;7185;51.854;6.622;2023-12-07T07:14:29;175.90;;;37.47;;
14203;SDS011;7185;51.854;6.622;2023-12-07T07:17:01;188.18;;;38.33;;
14203;SDS011;7185;51.854;6.622;2023-12-07T07:19:34;127.47;;;32.88;;
14203;SDS011;7185;51.854;6.622;2023-12-07T07:22:12;147.40;;;34.60;;
14203;SDS011;7185;51.854;6.622;2023-12-07T07:24:47;137.80;;;32.85;;
14203;SDS011;7185;51.854;6.622;2023-12-07T07:27:20;124.43;;;30.98;;
14203;SDS011;7185;51.854;6.622;2023-12-07T07:29:52;105.47;;;30.88;;
14203;SDS011;7185;51.854;6.622;2023-12-07T07:32:23;104.57;;;29.92;;
14203;SDS011;7185;51.854;6.622;2023-12-07T07:34:55;142.45;;;32.92;;
14203;SDS011;7185;51.854;6.622;2023-12-07T07:37:27;152.10;;;32.05;;
14203;SDS011;7185;51.854;6.622;2023-12-07T07:39:58;124.53;;;30.10;;
14203;SDS011;7185;51.854;6.622;2023-12-07T07:42:32;127.82;;;31.33;;
14203;SDS011;7185;51.854;6.622;2023-12-07T07:45:04;119.90;;;32.45;;
14203;SDS011;7185;51.854;6.622;2023-12-07T07:47:37;102.95;;;30.27;;
14203;SDS011;7185;51.854;6.622;2023-12-07T07:50:08;134.85;;;32.38;;
14203;SDS011;7185;51.854;6.622;2023-12-07T07:52:41;128.55;;;32.05;;
14203;SDS011;7185;51.854;6.622;2023-12-07T07:55:13;121.57;;;30.75;;
14203;SDS011;7185;51.854;6.622;2023-12-07T07:57:49;123.55;;;29.55;;
14203;SDS011;7185;51.854;6.622;2023-12-07T08:00:21;134.27;;;33.15;;
14203;SDS011;7185;51.854;6.622;2023-12-07T08:02:56;95.78;;;28.15;;
14203;SDS011;7185;51.854;6.622;2023-12-07T08:05:27;113.10;;;30.48;;
14203;SDS011;7185;51.854;6.622;2023-12-07T08:07:59;126.55;;;29.67;;
14203;SDS011;7185;51.854;6.622;2023-12-07T08:10:31;116.90;;;29.52;;
14203;SDS011;7185;51.854;6.622;2023-12-07T08:13:04;129.70;;;31.25;;
14203;SDS011;7185;51.854;6.622;2023-12-07T08:15:37;92.95;;;29.30;;
14203;SDS011;7185;51.854;6.622;2023-12-07T08:18:10;121.18;;;29.85;;
14203;SDS011;7185;51.854;6.622;2023-12-07T08:20:44;103.90;;;29.33;;
14203;SDS011;7185;51.854;6.622;2023-12-07T08:23:16;112.72;;;28.35;;
14203;SDS011;7185;51.854;6.622;2023-12-07T08:25:48;108.18;;;29.02;;
14203;SDS011;7185;51.854;6.622;2023-12-07T08:28:21;121.07;;;27.83;;
14203;SDS011;7185;51.854;6.622;2023-12-07T08:30:53;92.22;;;29.30;;
14203;SDS011;7185;51.854;6.622;2023-12-07T08:33:25;98.80;;;29.35;;
14203;SDS011;7185;51.854;6.622;2023-12-07T08:35:56;114.88;;;30.83;;
14203;SDS011;7185;51.854;6.622;2023-12-07T08:38:28;115.50;;;28.55;;
14203;SDS011;7185;51.854;6.622;2023-12-07T08:41:00;102.38;;;30.85;;
14203;SDS011;7185;51.854;6.622;2023-12-07T08:43:34;89.93;;;29.30;;
14203;SDS011;7185;51.854;6.622;2023-12-07T08:46:06;103.13;;;29.00;;
14203;SDS011;7185;51.854;6.622;2023-12-07T08:48:38;109.28;;;28.08;;
14203;SDS011;7185;51.854;6.622;2023-12-07T08:51:09;111.03;;;28.63;;
14203;SDS011;7185;51.854;6.622;2023-12-07T08:53:41;127.82;;;28.80;;
14203;SDS011;7185;51.854;6.622;2023-12-07T08:56:13;95.25;;;29.00;;
14203;SDS011;7185;51.854;6.622;2023-12-07T08:58:46;81.40;;;25.25;;
14203;SDS011;7185;51.854;6.622;2023-12-07T09:01:18;93.70;;;25.42;;
14203;SDS011;7185;51.854;6.622;2023-12-07T09:03:49;96.10;;;26.10;;
14203;SDS011;7185;51.854;6.622;2023-12-07T09:06:21;98.88;;;27.90;;
14203;SDS011;7185;51.854;6.622;2023-12-07T09:08:53;109.55;;;27.63;;
14203;SDS011;7185;51.854;6.622;2023-12-07T09:11:25;128.52;;;26.00;;
14203;SDS011;7185;51.854;6.622;2023-12-07T09:13:58;112.10;;;27.25;;
14203;SDS011;7185;51.854;6.622;2023-12-07T09:16:31;92.18;;;26.73;;
14203;SDS011;7185;51.854;6.622;2023-12-07T09:19:02;105.95;;;27.33;;
14203;SDS011;7185;51.854;6.622;2023-12-07T09:21:34;106.05;;;27.92;;
14203;SDS011;7185;51.854;6.622;2023-12-07T09:24:06;96.88;;;28.08;;
14203;SDS011;7185;51.854;6.622;2023-12-07T09:26:38;105.32;;;27.77;;
14203;SDS011;7185;51.854;6.622;2023-12-07T09:29:11;103.95;;;27.80;;
14203;SDS011;7185;51.854;6.622;2023-12-07T09:31:43;92.95;;;27.98;;
14203;SDS011;7185;51.854;6.622;2023-12-07T09:34:15;127.57;;;28.52;;
14203;SDS011;7185;51.854;6.622;2023-12-07T09:36:50;98.10;;;29.50;;
14203;SDS011;7185;51.854;6.622;2023-12-07T09:39:36;99.65;;;28.90;;
14203;SDS011;7185;51.854;6.622;2023-12-07T09:42:08;101.78;;;28.00;;
14203;SDS011;7185;51.854;6.622;2023-12-07T09:44:47;96.55;;;30.25;;
14203;SDS011;7185;51.854;6.622;2023-12-07T09:47:23;93.45;;;28.90;;
14203;SDS011;7185;51.854;6.622;2023-12-07T09:49:57;93.25;;;28.77;;
14203;SDS011;7185;51.854;6.622;2023-12-07T09:52:29;101.65;;;30.55;;
14203;SDS011;7185;51.854;6.622;2023-12-07T09:55:02;110.05;;;30.38;;
14203;SDS011;7185;51.854;6.622;2023-12-07T09:57:34;93.97;;;28.65;;
14203;SDS011;7185;51.854;6.622;2023-12-07T10:00:07;106.35;;;31.40;;
14203;SDS011;7185;51.854;6.622;2023-12-07T10:02:40;108.82;;;31.30;;
14203;SDS011;7185;51.854;6.622;2023-12-07T10:05:14;97.35;;;30.90;;
14203;SDS011;7185;51.854;6.622;2023-12-07T10:07:48;97.72;;;30.45;;
14203;SDS011;7185;51.854;6.622;2023-12-07T10:10:21;97.63;;;29.83;;
14203;SDS011;7185;51.854;6.622;2023-12-07T10:12:53;107.50;;;31.92;;
14203;SDS011;7185;51.854;6.622;2023-12-07T10:15:27;100.70;;;31.52;;
14203;SDS011;7185;51.854;6.622;2023-12-07T10:18:00;89.00;;;29.92;;
14203;SDS011;7185;51.854;6.622;2023-12-07T10:20:32;99.65;;;29.73;;
14203;SDS011;7185;51.854;6.622;2023-12-07T10:23:04;91.35;;;29.92;;
14203;SDS011;7185;51.854;6.622;2023-12-07T10:25:37;86.97;;;30.50;;
14203;SDS011;7185;51.854;6.622;2023-12-07T10:28:11;93.50;;;30.40;;
14203;SDS011;7185;51.854;6.622;2023-12-07T10:30:44;102.35;;;33.00;;
14203;SDS011;7185;51.854;6.622;2023-12-07T10:33:16;93.57;;;31.33;;
14203;SDS011;7185;51.854;6.622;2023-12-07T10:35:47;101.10;;;31.92;;
14203;SDS011;7185;51.854;6.622;2023-12-07T10:38:20;109.38;;;33.85;;
14203;SDS011;7185;51.854;6.622;2023-12-07T10:40:57;99.50;;;32.55;;
14203;SDS011;7185;51.854;6.622;2023-12-07T10:43:36;115.82;;;36.78;;
14203;SDS011;7185;51.854;6.622;2023-12-07T10:46:10;102.72;;;35.10;;
14203;SDS011;7185;51.854;6.622;2023-12-07T10:48:47;122.80;;;36.97;;
14203;SDS011;7185;51.854;6.622;2023-12-07T10:51:21;121.05;;;38.88;;
14203;SDS011;7185;51.854;6.622;2023-12-07T10:53:58;126.80;;;40.30;;
14203;SDS011;7185;51.854;6.622;2023-12-07T10:56:38;133.10;;;41.70;;
14203;SDS011;7185;51.854;6.622;2023-12-07T10:59:12;128.30;;;41.30;;
14203;SDS011;7185;51.854;6.622;2023-12-07T11:01:45;120.97;;;37.50;;
14203;SDS011;7185;51.854;6.622;2023-12-07T11:04:18;121.35;;;38.75;;
14203;SDS011;7185;51.854;6.622;2023-12-07T11:06:52;126.15;;;39.92;;
14203;SDS011;7185;51.854;6.622;2023-12-07T11:09:29;129.98;;;43.25;;
14203;SDS011;7185;51.854;6.622;2023-12-07T11:12:07;131.57;;;41.10;;
14203;SDS011;7185;51.854;6.622;2023-12-07T11:14:45;134.48;;;42.38;;
14203;SDS011;7185;51.854;6.622;2023-12-07T11:17:19;140.27;;;42.75;;
14203;SDS011;7185;51.854;6.622;2023-12-07T11:19:52;125.88;;;42.80;;
14203;SDS011;7185;51.854;6.622;2023-12-07T11:22:24;149.35;;;44.65;;
14203;SDS011;7185;51.854;6.622;2023-12-07T11:24:56;145.20;;;42.97;;
14203;SDS011;7185;51.854;6.622;2023-12-07T11:27:31;131.50;;;44.78;;
14203;SDS011;7185;51.854;6.622;2023-12-07T11:30:03;134.98;;;43.42;;
14203;SDS011;7185;51.854;6.622;2023-12-07T11:32:37;125.60;;;41.80;;
14203;SDS011;7185;51.854;6.622;2023-12-07T11:35:12;137.73;;;42.08;;
14203;SDS011;7185;51.854;6.622;2023-12-07T11:38:01;122.18;;;40.80;;
14203;SDS011;7185;51.854;6.622;2023-12-07T11:40:35;119.43;;;41.60;;
14203;SDS011;7185;51.854;6.622;2023-12-07T11:43:07;128.40;;;41.72;;
14203;SDS011;7185;51.854;6.622;2023-12-07T11:45:40;123.88;;;42.90;;
14203;SDS011;7185;51.854;6.622;2023-12-07T11:48:14;106.07;;;40.30;;
14203;SDS011;7185;51.854;6.622;2023-12-07T11:50:54;113.43;;;39.75;;
14203;SDS011;7185;51.854;6.622;2023-12-07T11:53:27;107.35;;;38.10;;
14203;SDS011;7185;51.854;6.622;2023-12-07T11:56:01;96.43;;;35.58;;
14203;SDS011;7185;51.854;6.622;2023-12-07T11:58:34;98.78;;;36.88;;
14203;SDS011;7185;51.854;6.622;2023-12-07T12:01:07;83.32;;;35.40;;
14203;SDS011;7185;51.854;6.622;2023-12-07T12:03:41;91.45;;;36.65;;
14203;SDS011;7185;51.854;6.622;2023-12-07T12:06:14;95.25;;;38.17;;
14203;SDS011;7185;51.854;6.622;2023-12-07T12:08:46;81.10;;;33.30;;
14203;SDS011;7185;51.854;6.622;2023-12-07T12:11:17;84.22;;;35.20;;
14203;SDS011;7185;51.854;6.622;2023-12-07T12:13:49;87.30;;;35.05;;
14203;SDS011;7185;51.854;6.622;2023-12-07T12:16:21;75.97;;;34.25;;
14203;SDS011;7185;51.854;6.622;2023-12-07T12:18:54;68.30;;;32.38;;
14203;SDS011;7185;51.854;6.622;2023-12-07T12:21:26;58.55;;;28.67;;
14203;SDS011;7185;51.854;6.622;2023-12-07T12:23:58;50.28;;;26.05;;
14203;SDS011;7185;51.854;6.622;2023-12-07T12:26:30;53.08;;;27.05;;
14203;SDS011;7185;51.854;6.622;2023-12-07T12:29:02;42.40;;;23.95;;
14203;SDS011;7185;51.854;6.622;2023-12-07T12:31:34;47.92;;;23.25;;
14203;SDS011;7185;51.854;6.622;2023-12-07T12:34:07;43.83;;;23.88;;
14203;SDS011;7185;51.854;6.622;2023-12-07T12:36:41;40.97;;;23.58;;
14203;SDS011;7185;51.854;6.622;2023-12-07T12:39:13;39.25;;;23.17;;
14203;SDS011;7185;51.854;6.622;2023-12-07T12:41:44;36.58;;;21.50;;
14203;SDS011;7185;51.854;6.622;2023-12-07T12:44:16;35.75;;;21.90;;
14203;SDS011;7185;51.854;6.622;2023-12-07T12:46:48;39.50;;;23.02;;
14203;SDS011;7185;51.854;6.622;2023-12-07T12:49:21;36.80;;;21.20;;
14203;SDS011;7185;51.854;6.622;2023-12-07T12:51:53;33.45;;;20.98;;
14203;SDS011;7185;51.854;6.622;2023-12-07T12:54:30;35.95;;;20.52;;
14203;SDS011;7185;51.854;6.622;2023-12-07T12:59:34;43.22;;;22.40;;
14203;SDS011;7185;51.854;6.622;2023-12-07T13:02:06;35.83;;;19.85;;
14203;SDS011;7185;51.854;6.622;2023-12-07T13:04:40;34.63;;;20.15;;
14203;SDS011;7185;51.854;6.622;2023-12-07T13:07:12;34.47;;;19.25;;
14203;SDS011;7185;51.854;6.622;2023-12-07T13:09:44;33.63;;;19.60;;
14203;SDS011;7185;51.854;6.622;2023-12-07T13:12:16;35.65;;;18.88;;
14203;SDS011;7185;51.854;6.622;2023-12-07T13:14:47;27.25;;;16.20;;
14203;SDS011;7185;51.854;6.622;2023-12-07T13:17:19;25.67;;;14.15;;
14203;SDS011;7185;51.854;6.622;2023-12-07T13:19:52;30.85;;;14.25;;
14203;SDS011;7185;51.854;6.622;2023-12-07T13:22:24;23.98;;;14.98;;
14203;SDS011;7185;51.854;6.622;2023-12-07T13:24:56;30.90;;;17.75;;
14203;SDS011;7185;51.854;6.622;2023-12-07T13:27:27;34.95;;;17.45;;
14203;SDS011;7185;51.854;6.622;2023-12-07T13:29:59;31.17;;;19.60;;
14203;SDS011;7185;51.854;6.622;2023-12-07T13:32:31;25.48;;;16.63;;
14203;SDS011;7185;51.854;6.622;2023-12-07T13:35:05;27.83;;;16.98;;
14203;SDS011;7185;51.854;6.622;2023-12-07T13:37:38;31.30;;;16.55;;
14203;SDS011;7185;51.854;6.622;2023-12-07T13:40:10;23.77;;;15.00;;
14203;SDS011;7185;51.854;6.622;2023-12-07T13:42:47;20.38;;;13.43;;
14203;SDS011;7185;51.854;6.622;2023-12-07T13:45:19;22.13;;;13.73;;
14203;SDS011;7185;51.854;6.622;2023-12-07T13:47:51;22.95;;;13.43;;
14203;SDS011;7185;51.854;6.622;2023-12-07T13:50:24;19.42;;;12.95;;
14203;SDS011;7185;51.854;6.622;2023-12-07T13:52:55;20.58;;;12.30;;
14203;SDS011;7185;51.854;6.622;2023-12-07T13:55:31;22.75;;;13.48;;
14203;SDS011;7185;51.854;6.622;2023-12-07T13:58:03;25.05;;;13.13;;
14203;SDS011;7185;51.854;6.622;2023-12-07T14:00:36;21.20;;;12.75;;
14203;SDS011;7185;51.854;6.622;2023-12-07T14:03:09;21.00;;;12.48;;
14203;SDS011;7185;51.854;6.622;2023-12-07T14:05:42;20.88;;;12.18;;
14203;SDS011;7185;51.854;6.622;2023-12-07T14:08:15;23.38;;;13.00;;
14203;SDS011;7185;51.854;6.622;2023-12-07T14:10:48;24.20;;;13.18;;
14203;SDS011;7185;51.854;6.622;2023-12-07T14:13:20;21.23;;;12.05;;
14203;SDS011;7185;51.854;6.622;2023-12-07T14:15:52;24.35;;;12.05;;
14203;SDS011;7185;51.854;6.622;2023-12-07T14:18:23;23.50;;;12.40;;
14203;SDS011;7185;51.854;6.622;2023-12-07T14:21:10;22.27;;;11.60;;
14203;SDS011;7185;51.854;6.622;2023-12-07T14:23:42;22.65;;;11.50;;
14203;SDS011;7185;51.854;6.622;2023-12-07T14:26:14;19.35;;;10.85;;
14203;SDS011;7185;51.854;6.622;2023-12-07T14:28:46;17.92;;;10.70;;
14203;SDS011;7185;51.854;6.622;2023-12-07T14:31:21;22.92;;;11.88;;
14203;SDS011;7185;51.854;6.622;2023-12-07T14:33:53;21.73;;;11.30;;
14203;SDS011;7185;51.854;6.622;2023-12-07T14:36:27;22.33;;;11.98;;
14203;SDS011;7185;51.854;6.622;2023-12-07T14:38:58;22.52;;;11.63;;
14203;SDS011;7185;51.854;6.622;2023-12-07T14:41:30;25.45;;;11.80;;
14203;SDS011;7185;51.854;6.622;2023-12-07T14:44:02;23.38;;;12.43;;
14203;SDS011;7185;51.854;6.622;2023-12-07T14:46:35;21.67;;;12.52;;
14203;SDS011;7185;51.854;6.622;2023-12-07T14:49:06;24.60;;;12.60;;
14203;SDS011;7185;51.854;6.622;2023-12-07T14:51:40;21.83;;;12.65;;
14203;SDS011;7185;51.854;6.622;2023-12-07T14:54:11;20.27;;;11.85;;
14203;SDS011;7185;51.854;6.622;2023-12-07T14:56:43;26.73;;;14.32;;
14203;SDS011;7185;51.854;6.622;2023-12-07T14:59:15;26.63;;;14.02;;
14203;SDS011;7185;51.854;6.622;2023-12-07T15:01:47;21.30;;;12.82;;
14203;SDS011;7185;51.854;6.622;2023-12-07T15:04:20;24.52;;;13.02;;
14203;SDS011;7185;51.854;6.622;2023-12-07T15:06:53;24.92;;;13.15;;
14203;SDS011;7185;51.854;6.622;2023-12-07T15:09:25;27.13;;;14.23;;
14203;SDS011;7185;51.854;6.622;2023-12-07T15:11:58;25.88;;;14.77;;
14203;SDS011;7185;51.854;6.622;2023-12-07T15:14:30;26.05;;;13.75;;
14203;SDS011;7185;51.854;6.622;2023-12-07T15:17:03;29.08;;;14.25;;
14203;SDS011;7185;51.854;6.622;2023-12-07T15:19:35;26.75;;;14.38;;
14203;SDS011;7185;51.854;6.622;2023-12-07T15:22:08;29.08;;;14.00;;
14203;SDS011;7185;51.854;6.622;2023-12-07T15:24:46;28.83;;;13.52;;
14203;SDS011;7185;51.854;6.622;2023-12-07T15:27:21;32.28;;;14.43;;
14203;SDS011;7185;51.854;6.622;2023-12-07T15:29:55;23.73;;;12.65;;
14203;SDS011;7185;51.854;6.622;2023-12-07T15:32:26;23.08;;;12.65;;
14203;SDS011;7185;51.854;6.622;2023-12-07T15:34:58;26.10;;;12.65;;
14203;SDS011;7185;51.854;6.622;2023-12-07T15:37:31;26.63;;;13.13;;